createdAt,value
2018-12-26T00:00:16.962Z,93.2
2018-12-26T00:01:17.117Z,93.0
2018-12-26T00:02:16.390Z,93.0
2018-12-26T00:03:16.658Z,92.8
2018-12-26T00:04:16.924Z,92.8
2018-12-26T00:05:16.219Z,93.0
2018-12-26T00:06:16.487Z,93.1
2018-12-26T00:07:16.755Z,93.3
2018-12-26T00:08:16.023Z,93.5
2018-12-26T00:09:16.290Z,93.5
2018-12-26T00:10:16.553Z,93.6
2018-12-26T00:11:16.611Z,93.6
2018-12-26T00:12:16.875Z,93.7
2018-12-26T00:13:16.133Z,94.0
2018-12-26T00:14:16.401Z,93.8
2018-12-26T00:15:16.677Z,93.8
2018-12-26T00:16:16.938Z,93.8
2018-12-26T00:17:16.190Z,93.8
2018-12-26T00:18:16.486Z,94.0
2018-12-26T00:19:16.764Z,94.0
2018-12-26T00:20:16.037Z,93.8
2018-12-26T00:21:16.070Z,93.8
2018-12-26T00:22:16.323Z,93.8
2018-12-26T00:23:16.594Z,93.8
2018-12-26T00:24:17.092Z,93.6
2018-12-26T00:25:16.545Z,93.6
2018-12-26T00:26:16.928Z,93.8
2018-12-26T00:27:16.186Z,94.0
2018-12-26T00:28:16.461Z,94.0
2018-12-26T00:29:16.726Z,94.2
2018-12-26T00:30:17.006Z,94.3
2018-12-26T00:31:16.054Z,94.5
2018-12-26T00:32:16.307Z,94.5
2018-12-26T00:33:16.573Z,94.5
2018-12-26T00:34:16.837Z,94.8
2018-12-26T00:35:16.097Z,95.1
2018-12-26T00:36:16.364Z,95.2
2018-12-26T00:37:16.625Z,95.2
2018-12-26T00:38:16.887Z,95.4
2018-12-26T00:39:16.148Z,95.4
2018-12-26T00:40:16.419Z,95.6
2018-12-26T00:41:16.481Z,95.7
2018-12-26T00:42:16.738Z,95.6
2018-12-26T00:43:16.010Z,95.6
2018-12-26T00:44:16.273Z,96.0
2018-12-26T00:45:16.546Z,95.6
2018-12-26T00:46:16.810Z,94.8
2018-12-26T00:47:16.066Z,94.5
2018-12-26T00:48:16.324Z,94.5
2018-12-26T00:49:16.604Z,93.9
2018-12-26T00:50:16.878Z,93.9
2018-12-26T00:51:17.188Z,93.9
2018-12-26T00:52:16.456Z,93.5
2018-12-26T00:53:16.710Z,93.2
2018-12-26T00:54:16.987Z,93.0
2018-12-26T00:55:16.243Z,93.0
2018-12-26T00:56:16.515Z,92.7
2018-12-26T00:57:16.775Z,92.8
2018-12-26T00:58:16.042Z,93.0
2018-12-26T00:59:16.313Z,93.0
2018-12-26T01:00:16.581Z,92.8
2018-12-26T01:01:16.627Z,92.8
2018-12-26T01:02:16.894Z,92.8
2018-12-26T01:03:16.157Z,92.8
2018-12-26T01:04:16.433Z,92.8
2018-12-26T01:05:16.694Z,93.0
2018-12-26T01:06:16.955Z,92.8
2018-12-26T01:07:16.222Z,92.8
2018-12-26T01:08:16.483Z,92.8
2018-12-26T01:09:16.749Z,93.1
2018-12-26T01:10:16.018Z,93.1
2018-12-26T01:11:16.075Z,93.2
2018-12-26T01:12:16.351Z,93.2
2018-12-26T01:13:16.624Z,93.0
2018-12-26T01:14:16.892Z,92.9
2018-12-26T01:15:16.154Z,92.8
2018-12-26T01:16:16.430Z,92.9
2018-12-26T01:17:16.735Z,92.8
2018-12-26T01:18:16.002Z,93.1
2018-12-26T01:19:16.267Z,93.3
2018-12-26T01:20:16.539Z,93.4
2018-12-26T01:21:16.600Z,93.3
2018-12-26T01:22:16.863Z,93.2
2018-12-26T01:23:16.132Z,92.8
2018-12-26T01:24:16.402Z,92.6
2018-12-26T01:25:16.671Z,92.7
2018-12-26T01:26:19.545Z,92.4
2018-12-26T01:27:16.838Z,92.6
2018-12-26T01:28:16.099Z,93.0
2018-12-26T01:29:16.365Z,92.9
2018-12-26T01:30:16.647Z,92.8
2018-12-26T01:31:16.713Z,93.0
2018-12-26T01:32:16.969Z,93.0
2018-12-26T01:33:16.232Z,92.8
2018-12-26T01:34:16.495Z,93.2
2018-12-26T01:35:16.758Z,93.3
2018-12-26T01:36:16.026Z,93.5
2018-12-26T01:37:16.534Z,93.6
2018-12-26T01:38:16.804Z,93.6
2018-12-26T01:39:16.072Z,93.7
2018-12-26T01:40:16.360Z,93.7
2018-12-26T01:41:16.388Z,93.5
2018-12-26T01:42:16.654Z,93.8
2018-12-26T01:43:16.917Z,93.5
2018-12-26T01:44:16.178Z,93.7
2018-12-26T01:45:16.438Z,93.7
2018-12-26T01:46:16.699Z,93.7
2018-12-26T01:47:17.421Z,93.5
2018-12-26T01:48:16.684Z,93.7
2018-12-26T01:49:16.954Z,93.5
2018-12-26T01:50:16.221Z,93.5
2018-12-26T01:51:16.280Z,93.4
2018-12-26T01:52:16.555Z,93.4
2018-12-26T01:53:16.813Z,93.5
2018-12-26T01:54:16.074Z,93.4
2018-12-26T01:55:16.345Z,93.4
2018-12-26T01:56:16.612Z,93.4
2018-12-26T01:57:16.887Z,93.2
2018-12-26T01:58:16.140Z,93.1
2018-12-26T01:59:16.407Z,92.9
2018-12-26T02:00:16.679Z,93.0
2018-12-26T02:01:16.735Z,92.8
2018-12-26T02:02:16.096Z,92.7
2018-12-26T02:03:16.381Z,92.7
2018-12-26T02:04:16.654Z,93.2
2018-12-26T02:05:16.918Z,92.6
2018-12-26T02:06:16.182Z,92.5
2018-12-26T02:07:16.461Z,92.6
2018-12-26T02:08:16.733Z,92.4
2018-12-26T02:09:16.001Z,92.5
2018-12-26T02:10:16.282Z,92.6
2018-12-26T02:11:16.311Z,92.6
2018-12-26T02:12:16.578Z,92.7
2018-12-26T02:13:16.844Z,92.8
2018-12-26T02:14:16.109Z,92.7
2018-12-26T02:15:16.375Z,92.6
2018-12-26T02:16:16.644Z,92.3
2018-12-26T02:17:16.913Z,92.3
2018-12-26T02:18:16.180Z,92.5
2018-12-26T02:19:16.448Z,92.3
2018-12-26T02:20:16.721Z,92.4
2018-12-26T02:21:16.717Z,92.3
2018-12-26T02:22:16.981Z,92.3
2018-12-26T02:23:16.246Z,92.5
2018-12-26T02:24:16.506Z,92.7
2018-12-26T02:25:16.770Z,92.8
2018-12-26T02:26:16.034Z,92.8
2018-12-26T02:27:16.293Z,93.0
2018-12-26T02:28:16.567Z,93.0
2018-12-26T02:29:16.923Z,93.2
2018-12-26T02:30:16.189Z,93.4
2018-12-26T02:31:16.252Z,93.3
2018-12-26T02:32:16.530Z,93.5
2018-12-26T02:33:16.783Z,93.5
2018-12-26T02:34:16.055Z,93.6
2018-12-26T02:35:16.327Z,93.5
2018-12-26T02:36:16.600Z,93.5
2018-12-26T02:37:17.205Z,93.5
2018-12-26T02:38:16.554Z,93.7
2018-12-26T02:39:16.823Z,93.6
2018-12-26T02:40:16.101Z,93.6
2018-12-26T02:41:16.152Z,93.6
2018-12-26T02:42:16.414Z,93.5
2018-12-26T02:43:16.684Z,93.5
2018-12-26T02:44:16.954Z,93.5
2018-12-26T02:45:16.221Z,93.6
2018-12-26T02:46:16.483Z,93.7
2018-12-26T02:47:16.740Z,93.8
2018-12-26T02:48:16.010Z,93.6
2018-12-26T02:49:16.280Z,94.0
2018-12-26T02:50:16.559Z,93.9
2018-12-26T02:51:16.604Z,93.8
2018-12-26T02:52:16.888Z,94.0
2018-12-26T02:53:16.146Z,94.2
2018-12-26T02:54:16.443Z,93.8
2018-12-26T02:55:16.720Z,93.8
2018-12-26T02:56:16.997Z,93.8
2018-12-26T02:57:16.276Z,93.9
2018-12-26T02:58:16.537Z,94.0
2018-12-26T02:59:16.804Z,94.2
2018-12-26T03:00:16.089Z,94.3
2018-12-26T03:01:16.136Z,94.5
2018-12-26T03:02:16.411Z,94.8
2018-12-26T03:03:16.674Z,94.8
2018-12-26T03:04:16.946Z,94.8
2018-12-26T03:05:16.229Z,94.8
2018-12-26T03:06:16.485Z,94.9
2018-12-26T03:07:16.757Z,94.8
2018-12-26T03:08:16.027Z,94.8
2018-12-26T03:09:16.303Z,95.1
2018-12-26T03:10:16.575Z,94.7
2018-12-26T03:11:16.643Z,94.8
2018-12-26T03:12:16.920Z,94.7
2018-12-26T03:13:16.193Z,94.7
2018-12-26T03:14:16.459Z,94.8
2018-12-26T03:15:16.722Z,94.8
2018-12-26T03:16:16.989Z,94.8
2018-12-26T03:17:16.592Z,94.7
2018-12-26T03:18:16.857Z,94.7
2018-12-26T03:19:16.117Z,94.6
2018-12-26T03:20:16.397Z,94.8
2018-12-26T03:21:16.434Z,94.7
2018-12-26T03:22:16.701Z,94.7
2018-12-26T03:23:16.959Z,94.8
2018-12-26T03:24:16.229Z,94.7
2018-12-26T03:25:16.498Z,94.5
2018-12-26T03:26:16.765Z,94.5
2018-12-26T03:27:16.037Z,94.7
2018-12-26T03:28:16.307Z,94.7
2018-12-26T03:29:16.577Z,94.6
2018-12-26T03:30:16.876Z,94.7
2018-12-26T03:31:16.944Z,94.5
2018-12-26T03:32:16.235Z,94.8
2018-12-26T03:33:16.514Z,94.8
2018-12-26T03:34:16.777Z,94.8
2018-12-26T03:35:16.156Z,94.8
2018-12-26T03:36:16.441Z,95.0
2018-12-26T03:37:16.699Z,95.1
2018-12-26T03:38:16.958Z,95.0
2018-12-26T03:39:16.256Z,95.1
2018-12-26T03:40:16.556Z,95.1
2018-12-26T03:41:16.577Z,95.0
2018-12-26T03:42:16.852Z,95.1
2018-12-26T03:43:16.125Z,95.1
2018-12-26T03:44:16.404Z,95.1
2018-12-26T03:45:16.679Z,95.2
2018-12-26T03:46:16.944Z,95.2
2018-12-26T03:47:16.219Z,95.2
2018-12-26T03:48:16.494Z,95.3
2018-12-26T03:49:16.753Z,95.3
2018-12-26T03:50:16.032Z,95.6
2018-12-26T03:51:16.907Z,95.6
2018-12-26T03:52:16.163Z,95.8
2018-12-26T03:53:16.424Z,95.9
2018-12-26T03:54:16.684Z,96.0
2018-12-26T03:55:16.961Z,96.0
2018-12-26T03:56:16.217Z,96.0
2018-12-26T03:57:16.477Z,96.2
2018-12-26T03:58:16.746Z,96.3
2018-12-26T03:59:16.020Z,96.3
2018-12-26T04:00:16.297Z,96.3
2018-12-26T04:01:16.367Z,96.3
2018-12-26T04:02:16.632Z,96.3
2018-12-26T04:03:16.900Z,96.5
2018-12-26T04:04:16.164Z,96.7
2018-12-26T04:05:16.431Z,96.8
2018-12-26T04:06:16.692Z,96.8
2018-12-26T04:07:16.971Z,96.9
2018-12-26T04:08:16.232Z,97.0
2018-12-26T04:09:16.507Z,97.1
2018-12-26T04:10:16.779Z,97.0
2018-12-26T04:11:16.837Z,97.1
2018-12-26T04:12:16.094Z,97.2
2018-12-26T04:13:16.362Z,97.3
2018-12-26T04:14:16.626Z,97.3
2018-12-26T04:15:16.902Z,97.2
2018-12-26T04:16:16.179Z,97.2
2018-12-26T04:17:16.445Z,97.4
2018-12-26T04:18:16.719Z,97.4
2018-12-26T04:19:16.976Z,97.4
2018-12-26T04:20:16.250Z,97.5
2018-12-26T04:21:16.305Z,97.6
2018-12-26T04:22:16.577Z,97.6
2018-12-26T04:23:17.101Z,97.7
2018-12-26T04:24:16.373Z,97.8
2018-12-26T04:25:16.631Z,97.8
2018-12-26T04:26:16.900Z,97.8
2018-12-26T04:27:16.169Z,97.8
2018-12-26T04:28:16.436Z,97.7
2018-12-26T04:29:16.705Z,97.7
2018-12-26T04:30:16.988Z,97.7
2018-12-26T04:31:16.028Z,97.7
2018-12-26T04:32:16.300Z,97.8
2018-12-26T04:33:16.568Z,97.8
2018-12-26T04:34:16.828Z,97.8
2018-12-26T04:35:16.099Z,97.8
2018-12-26T04:36:16.361Z,98.0
2018-12-26T04:37:16.615Z,98.0
2018-12-26T04:38:16.891Z,98.1
2018-12-26T04:39:16.155Z,98.2
2018-12-26T04:40:16.437Z,98.2
2018-12-26T04:41:16.477Z,98.2
2018-12-26T04:42:16.747Z,98.3
2018-12-26T04:43:16.014Z,98.2
2018-12-26T04:44:16.549Z,98.2
2018-12-26T04:45:16.834Z,98.3
2018-12-26T04:46:16.096Z,98.2
2018-12-26T04:47:16.355Z,98.2
2018-12-26T04:48:16.631Z,98.2
2018-12-26T04:49:16.907Z,98.2
2018-12-26T04:50:16.196Z,98.2
2018-12-26T04:51:16.228Z,98.2
2018-12-26T04:52:16.516Z,98.2
2018-12-26T04:53:16.780Z,98.2
2018-12-26T04:54:16.038Z,98.2
2018-12-26T04:55:16.322Z,98.2
2018-12-26T04:56:16.599Z,98.2
2018-12-26T04:57:25.184Z,98.3
2018-12-26T04:58:16.492Z,98.3
2018-12-26T04:59:16.763Z,98.3
2018-12-26T05:00:16.044Z,98.3
2018-12-26T05:01:16.092Z,98.3
2018-12-26T05:02:16.362Z,98.3
2018-12-26T05:03:16.626Z,98.3
2018-12-26T05:04:16.892Z,98.3
2018-12-26T05:05:16.158Z,98.3
2018-12-26T05:06:16.422Z,98.3
2018-12-26T05:07:16.682Z,98.5
2018-12-26T05:08:16.940Z,98.4
2018-12-26T05:09:16.204Z,98.3
2018-12-26T05:10:16.468Z,98.4
2018-12-26T05:11:16.513Z,98.5
2018-12-26T05:12:16.768Z,98.4
2018-12-26T05:13:16.036Z,98.3
2018-12-26T05:14:16.308Z,98.4
2018-12-26T05:15:16.571Z,98.4
2018-12-26T05:16:16.830Z,98.4
2018-12-26T05:17:16.097Z,98.5
2018-12-26T05:18:16.357Z,98.4
2018-12-26T05:19:16.621Z,98.4
2018-12-26T05:20:16.888Z,98.4
2018-12-26T05:21:17.039Z,98.4
2018-12-26T05:22:16.309Z,98.5
2018-12-26T05:23:16.564Z,98.6
2018-12-26T05:24:16.823Z,98.6
2018-12-26T05:25:16.096Z,98.5
2018-12-26T05:26:16.356Z,98.5
2018-12-26T05:27:16.611Z,98.3
2018-12-26T05:28:16.878Z,98.3
2018-12-26T05:29:16.140Z,98.3
2018-12-26T05:30:16.410Z,98.3
2018-12-26T05:31:16.454Z,98.4
2018-12-26T05:32:16.726Z,98.4
2018-12-26T05:33:15.995Z,98.5
2018-12-26T05:34:16.263Z,98.5
2018-12-26T05:35:16.532Z,98.5
2018-12-26T05:36:16.794Z,98.5
2018-12-26T05:37:16.072Z,98.5
2018-12-26T05:38:16.342Z,98.6
2018-12-26T05:39:16.599Z,98.6
2018-12-26T05:40:16.894Z,98.5
2018-12-26T05:41:17.214Z,98.5
2018-12-26T05:42:16.488Z,98.7
2018-12-26T05:43:16.770Z,98.7
2018-12-26T05:44:16.032Z,98.7
2018-12-26T05:45:16.313Z,98.7
2018-12-26T05:46:16.576Z,98.7
2018-12-26T05:47:16.838Z,98.7
2018-12-26T05:48:16.105Z,98.6
2018-12-26T05:49:16.366Z,98.5
2018-12-26T05:50:16.643Z,98.5
2018-12-26T05:51:16.696Z,98.5
2018-12-26T05:52:16.963Z,98.5
2018-12-26T05:53:16.229Z,98.5
2018-12-26T05:54:16.490Z,98.4
2018-12-26T05:55:16.750Z,98.3
2018-12-26T05:56:16.661Z,98.3
2018-12-26T05:57:16.926Z,98.3
2018-12-26T05:58:16.191Z,98.2
2018-12-26T05:59:16.461Z,98.3
2018-12-26T06:00:16.746Z,98.4
2018-12-26T06:01:17.038Z,98.4
2018-12-26T06:02:16.304Z,98.4
2018-12-26T06:03:16.577Z,98.4
2018-12-26T06:04:16.848Z,98.3
2018-12-26T06:05:16.106Z,98.3
2018-12-26T06:06:16.380Z,98.2
2018-12-26T06:07:16.644Z,98.3
2018-12-26T06:08:16.909Z,98.3
2018-12-26T06:09:16.179Z,98.4
2018-12-26T06:10:16.454Z,98.3
2018-12-26T06:11:16.501Z,98.2
2018-12-26T06:12:16.767Z,98.2
2018-12-26T06:13:16.029Z,98.2
2018-12-26T06:14:16.294Z,98.3
2018-12-26T06:15:16.563Z,98.4
2018-12-26T06:16:16.834Z,98.5
2018-12-26T06:17:16.104Z,98.5
2018-12-26T06:18:16.364Z,98.5
2018-12-26T06:19:16.634Z,98.5
2018-12-26T06:20:16.910Z,98.5
2018-12-26T06:21:16.980Z,98.5
2018-12-26T06:22:16.248Z,98.5
2018-12-26T06:23:16.507Z,98.5
2018-12-26T06:24:16.781Z,98.5
2018-12-26T06:25:16.055Z,98.5
2018-12-26T06:26:16.333Z,98.4
2018-12-26T06:27:16.601Z,98.5
2018-12-26T06:28:16.874Z,98.5
2018-12-26T06:29:16.147Z,98.4
2018-12-26T06:30:16.412Z,98.4
2018-12-26T06:31:16.474Z,98.3
2018-12-26T06:32:16.735Z,98.3
2018-12-26T06:33:15.998Z,98.3
2018-12-26T06:34:16.275Z,98.4
2018-12-26T06:35:16.566Z,98.4
2018-12-26T06:36:17.123Z,98.4
2018-12-26T06:37:16.391Z,98.3
2018-12-26T06:38:16.657Z,98.3
2018-12-26T06:39:16.926Z,98.3
2018-12-26T06:40:16.200Z,98.2
2018-12-26T06:41:16.253Z,98.2
2018-12-26T06:42:16.529Z,98.2
2018-12-26T06:43:16.809Z,98.0
2018-12-26T06:44:16.089Z,98.0
2018-12-26T06:45:16.362Z,98.0
2018-12-26T06:46:16.646Z,98.1
2018-12-26T06:47:16.921Z,98.1
2018-12-26T06:48:16.180Z,98.1
2018-12-26T06:49:16.441Z,98.2
2018-12-26T06:50:16.707Z,98.2
2018-12-26T06:51:16.755Z,98.2
2018-12-26T06:52:16.044Z,98.3
2018-12-26T06:53:16.318Z,98.5
2018-12-26T06:54:16.579Z,98.5
2018-12-26T06:55:16.840Z,98.5
2018-12-26T06:56:16.108Z,98.6
2018-12-26T06:57:16.365Z,98.6
2018-12-26T06:58:16.639Z,98.6
2018-12-26T06:59:16.898Z,98.5
2018-12-26T07:00:16.161Z,98.5
2018-12-26T07:01:16.222Z,98.5
2018-12-26T07:02:16.485Z,98.5
2018-12-26T07:03:16.750Z,98.5
2018-12-26T07:04:16.013Z,98.6
2018-12-26T07:05:16.294Z,98.6
2018-12-26T07:06:16.563Z,98.6
2018-12-26T07:07:16.823Z,98.6
2018-12-26T07:08:16.076Z,98.7
2018-12-26T07:09:16.345Z,98.6
2018-12-26T07:10:16.618Z,98.6
2018-12-26T07:11:16.645Z,98.6
2018-12-26T07:12:16.911Z,98.6
2018-12-26T07:13:16.177Z,98.6
2018-12-26T07:14:16.439Z,98.6
2018-12-26T07:15:16.707Z,98.6
2018-12-26T07:16:16.998Z,98.7
2018-12-26T07:17:16.268Z,98.7
2018-12-26T07:18:16.546Z,98.6
2018-12-26T07:19:16.810Z,98.7
2018-12-26T07:20:16.099Z,98.7
2018-12-26T07:21:16.132Z,98.8
2018-12-26T07:22:16.395Z,98.7
2018-12-26T07:23:16.657Z,98.7
2018-12-26T07:24:16.928Z,98.7
2018-12-26T07:25:16.186Z,98.7
2018-12-26T07:26:16.457Z,98.7
2018-12-26T07:27:16.725Z,98.6
2018-12-26T07:28:15.988Z,98.6
2018-12-26T07:29:16.332Z,98.5
2018-12-26T07:30:16.599Z,98.5
2018-12-26T07:31:16.656Z,98.6
2018-12-26T07:32:16.932Z,98.1
2018-12-26T07:33:16.215Z,98.0
2018-12-26T07:34:16.476Z,98.0
2018-12-26T07:35:16.737Z,97.8
2018-12-26T07:36:16.003Z,97.8
2018-12-26T07:37:16.274Z,98.1
2018-12-26T07:38:16.660Z,98.1
2018-12-26T07:39:17.173Z,98.0
2018-12-26T07:40:16.450Z,98.0
2018-12-26T07:41:16.508Z,98.0
2018-12-26T07:42:16.778Z,98.1
2018-12-26T07:43:16.042Z,98.1
2018-12-26T07:44:16.307Z,98.0
2018-12-26T07:45:16.583Z,97.9
2018-12-26T07:46:16.833Z,97.8
2018-12-26T07:47:16.098Z,97.6
2018-12-26T07:48:16.354Z,97.7
2018-12-26T07:49:16.620Z,97.8
2018-12-26T07:50:16.981Z,97.4
2018-12-26T07:51:16.930Z,97.6
2018-12-26T07:52:16.196Z,97.9
2018-12-26T07:53:16.455Z,98.0
2018-12-26T07:54:16.719Z,97.9
2018-12-26T07:55:16.975Z,97.8
2018-12-26T07:56:16.238Z,97.8
2018-12-26T07:57:16.502Z,97.8
2018-12-26T07:58:17.963Z,97.8
2018-12-26T07:59:16.252Z,97.7
2018-12-26T08:00:16.540Z,97.7
2018-12-26T08:01:16.574Z,97.7
2018-12-26T08:02:16.850Z,97.8
2018-12-26T08:03:16.117Z,97.7
2018-12-26T08:04:16.394Z,97.8
2018-12-26T08:05:16.669Z,97.7
2018-12-26T08:06:16.924Z,97.7
2018-12-26T08:07:16.189Z,97.4
2018-12-26T08:08:16.449Z,97.2
2018-12-26T08:09:16.711Z,97.2
2018-12-26T08:10:16.988Z,97.1
2018-12-26T08:11:16.041Z,96.8
2018-12-26T08:12:16.312Z,97.0
2018-12-26T08:13:16.581Z,97.1
2018-12-26T08:14:16.854Z,97.3
2018-12-26T08:15:16.129Z,97.5
2018-12-26T08:16:16.391Z,97.5
2018-12-26T08:17:16.664Z,97.4
2018-12-26T08:18:16.934Z,97.2
2018-12-26T08:19:16.200Z,97.2
2018-12-26T08:20:16.483Z,96.9
2018-12-26T08:21:16.535Z,97.1
2018-12-26T08:22:16.808Z,97.2
2018-12-26T08:23:16.072Z,97.0
2018-12-26T08:24:16.347Z,97.0
2018-12-26T08:25:16.626Z,96.8
2018-12-26T08:26:16.895Z,96.7
2018-12-26T08:27:16.155Z,96.8
2018-12-26T08:28:16.427Z,96.3
2018-12-26T08:29:16.700Z,96.2
2018-12-26T08:30:16.968Z,96.3
2018-12-26T08:31:16.036Z,96.3
2018-12-26T08:32:16.306Z,96.4
2018-12-26T08:33:16.573Z,96.2
2018-12-26T08:34:16.828Z,96.0
2018-12-26T08:35:16.085Z,95.8
2018-12-26T08:36:16.356Z,95.8
2018-12-26T08:37:16.617Z,95.8
2018-12-26T08:38:16.878Z,95.8
2018-12-26T08:39:16.133Z,95.7
2018-12-26T08:40:16.405Z,95.5
2018-12-26T08:41:18.769Z,95.4
2018-12-26T08:42:16.042Z,95.3
2018-12-26T08:43:16.306Z,95.0
2018-12-26T08:44:16.560Z,95.0
2018-12-26T08:45:16.826Z,94.8
2018-12-26T08:46:16.096Z,94.5
2018-12-26T08:47:16.784Z,94.5
2018-12-26T08:48:16.045Z,94.5
2018-12-26T08:49:16.312Z,94.5
2018-12-26T08:50:16.597Z,94.5
2018-12-26T08:51:16.621Z,94.4
2018-12-26T08:52:16.883Z,94.3
2018-12-26T08:53:16.139Z,94.0
2018-12-26T08:54:16.401Z,94.0
2018-12-26T08:55:16.658Z,94.0
2018-12-26T08:56:16.924Z,94.0
2018-12-26T08:57:16.187Z,94.0
2018-12-26T08:58:16.454Z,93.8
2018-12-26T08:59:16.718Z,93.6
2018-12-26T09:00:15.995Z,93.5
2018-12-26T09:01:16.057Z,93.6
2018-12-26T09:02:16.338Z,93.5
2018-12-26T09:03:16.621Z,93.2
2018-12-26T09:04:16.889Z,92.7
2018-12-26T09:05:16.149Z,92.5
2018-12-26T09:06:16.412Z,92.4
2018-12-26T09:07:16.666Z,92.4
2018-12-26T09:08:16.943Z,92.3
2018-12-26T09:09:16.214Z,92.2
2018-12-26T09:10:16.486Z,92.2
2018-12-26T09:11:16.545Z,92.0
2018-12-26T09:12:16.808Z,92.2
2018-12-26T09:13:16.072Z,91.8
2018-12-26T09:14:16.339Z,91.2
2018-12-26T09:15:16.611Z,91.2
2018-12-26T09:16:16.886Z,91.2
2018-12-26T09:17:16.152Z,90.6
2018-12-26T09:18:16.417Z,90.7
2018-12-26T09:19:16.691Z,90.8
2018-12-26T09:20:16.989Z,90.8
2018-12-26T09:21:16.018Z,90.8
2018-12-26T09:22:16.295Z,90.5
2018-12-26T09:23:16.568Z,90.7
2018-12-26T09:24:16.826Z,91.1
2018-12-26T09:25:16.106Z,91.3
2018-12-26T09:26:16.367Z,91.4
2018-12-26T09:27:16.638Z,91.6
2018-12-26T09:28:16.907Z,91.5
2018-12-26T09:29:16.186Z,91.2
2018-12-26T09:30:16.478Z,91.1
2018-12-26T09:31:16.523Z,90.7
2018-12-26T09:32:16.798Z,91.0
2018-12-26T09:33:16.064Z,90.9
2018-12-26T09:34:16.332Z,90.8
2018-12-26T09:35:16.586Z,90.6
2018-12-26T09:36:16.856Z,90.7
2018-12-26T09:37:16.126Z,90.4
2018-12-26T09:38:16.414Z,90.3
2018-12-26T09:39:16.765Z,90.5
2018-12-26T09:40:16.046Z,90.3
2018-12-26T09:41:16.090Z,90.2
2018-12-26T09:42:16.350Z,90.5
2018-12-26T09:43:16.607Z,90.5
2018-12-26T09:44:17.143Z,90.2
2018-12-26T09:45:16.409Z,90.2
2018-12-26T09:46:16.675Z,90.2
2018-12-26T09:47:16.941Z,89.8
2018-12-26T09:48:16.210Z,89.7
2018-12-26T09:49:16.488Z,89.8
2018-12-26T09:50:16.773Z,89.3
2018-12-26T09:51:16.800Z,89.5
2018-12-26T09:52:16.061Z,89.5
2018-12-26T09:53:16.324Z,89.4
2018-12-26T09:54:16.598Z,89.6
2018-12-26T09:55:16.871Z,89.0
2018-12-26T09:56:16.137Z,88.7
2018-12-26T09:57:16.404Z,89.0
2018-12-26T09:58:16.667Z,88.5
2018-12-26T09:59:16.944Z,88.5
2018-12-26T10:00:16.224Z,87.7
2018-12-26T10:01:16.266Z,87.7
2018-12-26T10:02:16.547Z,87.5
2018-12-26T10:03:16.806Z,87.5
2018-12-26T10:04:16.065Z,87.8
2018-12-26T10:05:16.348Z,88.0
2018-12-26T10:06:16.603Z,87.9
2018-12-26T10:07:16.865Z,87.4
2018-12-26T10:08:16.133Z,87.3
2018-12-26T10:09:16.413Z,87.2
2018-12-26T10:10:16.682Z,87.2
2018-12-26T10:11:16.741Z,87.5
2018-12-26T10:12:16.015Z,87.3
2018-12-26T10:13:16.269Z,87.3
2018-12-26T10:14:16.545Z,87.4
2018-12-26T10:15:16.813Z,87.8
2018-12-26T10:16:16.077Z,87.5
2018-12-26T10:17:16.345Z,87.4
2018-12-26T10:18:16.611Z,87.6
2018-12-26T10:19:16.890Z,86.7
2018-12-26T10:20:16.152Z,86.3
2018-12-26T10:21:16.210Z,86.2
2018-12-26T10:22:16.478Z,85.8
2018-12-26T10:23:16.747Z,85.3
2018-12-26T10:24:16.026Z,84.8
2018-12-26T10:25:16.320Z,84.7
2018-12-26T10:26:16.589Z,84.8
2018-12-26T10:27:16.845Z,84.8
2018-12-26T10:28:16.115Z,85.2
2018-12-26T10:29:16.382Z,85.0
2018-12-26T10:30:16.652Z,84.6
2018-12-26T10:31:16.687Z,84.4
2018-12-26T10:32:16.955Z,84.4
2018-12-26T10:33:16.221Z,85.0
2018-12-26T10:34:16.482Z,85.5
2018-12-26T10:35:16.759Z,85.7
2018-12-26T10:36:16.024Z,86.1
2018-12-26T10:37:16.291Z,85.5
2018-12-26T10:38:16.564Z,84.8
2018-12-26T10:39:16.822Z,83.7
2018-12-26T10:40:16.095Z,83.6
2018-12-26T10:41:16.146Z,83.6
2018-12-26T10:42:16.409Z,83.9
2018-12-26T10:43:16.672Z,83.2
2018-12-26T10:44:16.937Z,83.2
2018-12-26T10:45:16.205Z,83.1
2018-12-26T10:46:16.467Z,83.2
2018-12-26T10:47:16.738Z,83.5
2018-12-26T10:48:16.005Z,83.0
2018-12-26T10:49:16.283Z,83.1
2018-12-26T10:50:16.546Z,83.2
2018-12-26T10:51:16.616Z,83.5
2018-12-26T10:52:16.888Z,83.8
2018-12-26T10:53:16.250Z,83.6
2018-12-26T10:54:16.517Z,83.7
2018-12-26T10:55:16.781Z,84.0
2018-12-26T10:56:16.049Z,83.8
2018-12-26T10:57:16.324Z,83.2
2018-12-26T10:58:16.591Z,83.2
2018-12-26T10:59:16.848Z,83.8
2018-12-26T11:00:16.120Z,83.9
2018-12-26T11:01:16.181Z,83.7
2018-12-26T11:02:16.447Z,83.8
2018-12-26T11:03:16.724Z,84.5
2018-12-26T11:04:15.978Z,83.8
2018-12-26T11:05:16.251Z,83.9
2018-12-26T11:06:16.517Z,84.2
2018-12-26T11:07:16.779Z,83.9
2018-12-26T11:08:16.042Z,83.7
2018-12-26T11:09:16.306Z,84.0
2018-12-26T11:10:16.573Z,84.2
2018-12-26T11:11:16.617Z,84.3
2018-12-26T11:12:16.880Z,83.8
2018-12-26T11:13:16.147Z,84.0
2018-12-26T11:14:16.414Z,83.9
2018-12-26T11:15:16.691Z,84.0
2018-12-26T11:16:16.945Z,84.1
2018-12-26T11:17:16.214Z,84.3
2018-12-26T11:18:16.472Z,84.0
2018-12-26T11:19:16.736Z,83.9
2018-12-26T11:20:16.012Z,83.7
2018-12-26T11:21:16.052Z,82.9
2018-12-26T11:22:16.326Z,82.6
2018-12-26T11:23:16.593Z,82.9
2018-12-26T11:24:16.850Z,83.5
2018-12-26T11:25:16.112Z,83.0
2018-12-26T11:26:16.380Z,83.0
2018-12-26T11:27:16.644Z,83.1
2018-12-26T11:28:16.909Z,82.3
2018-12-26T11:29:19.049Z,82.0
2018-12-26T11:30:16.346Z,81.8
2018-12-26T11:31:16.403Z,82.3
2018-12-26T11:32:16.678Z,81.5
2018-12-26T11:33:16.939Z,81.7
2018-12-26T11:34:16.221Z,81.8
2018-12-26T11:35:16.509Z,81.6
2018-12-26T11:36:16.770Z,82.3
2018-12-26T11:37:16.034Z,81.3
2018-12-26T11:38:16.292Z,80.0
2018-12-26T11:39:16.567Z,81.2
2018-12-26T11:40:16.858Z,80.5
2018-12-26T11:41:16.903Z,80.8
2018-12-26T11:42:16.171Z,80.8
2018-12-26T11:43:16.430Z,81.2
2018-12-26T11:44:16.697Z,80.9
2018-12-26T11:45:16.977Z,79.8
2018-12-26T11:46:16.231Z,79.2
2018-12-26T11:47:16.505Z,78.0
2018-12-26T11:48:16.767Z,77.7
2018-12-26T11:49:16.032Z,77.2
2018-12-26T11:50:16.367Z,77.1
2018-12-26T11:51:16.380Z,77.2
2018-12-26T11:52:16.654Z,77.2
2018-12-26T11:53:16.927Z,77.1
2018-12-26T11:54:16.188Z,76.6
2018-12-26T11:55:16.456Z,76.7
2018-12-26T11:56:16.723Z,77.2
2018-12-26T11:57:15.987Z,76.9
2018-12-26T11:58:16.256Z,77.1
2018-12-26T11:59:16.532Z,77.1
2018-12-26T12:00:16.812Z,77.5
2018-12-26T12:01:16.850Z,77.1
2018-12-26T12:02:20.938Z,76.9
2018-12-26T12:03:16.234Z,77.2
2018-12-26T12:04:16.493Z,77.1
2018-12-26T12:05:16.750Z,77.0
2018-12-26T12:06:16.012Z,77.8
2018-12-26T12:07:16.275Z,78.3
2018-12-26T12:08:16.544Z,78.3
2018-12-26T12:09:16.808Z,78.7
2018-12-26T12:10:16.087Z,78.7
2018-12-26T12:11:16.370Z,78.0
2018-12-26T12:12:16.637Z,77.6
2018-12-26T12:13:16.917Z,77.5
2018-12-26T12:14:16.180Z,77.6
2018-12-26T12:15:16.450Z,77.7
2018-12-26T12:16:16.721Z,77.9
2018-12-26T12:17:15.999Z,78.3
2018-12-26T12:18:16.270Z,78.5
2018-12-26T12:19:16.541Z,78.5
2018-12-26T12:20:16.831Z,78.5
2018-12-26T12:21:16.870Z,78.8
2018-12-26T12:22:16.135Z,78.9
2018-12-26T12:23:16.413Z,78.5
2018-12-26T12:24:16.679Z,78.5
2018-12-26T12:25:16.948Z,78.8
2018-12-26T12:26:16.219Z,79.2
2018-12-26T12:27:16.486Z,78.6
2018-12-26T12:28:16.746Z,78.5
2018-12-26T12:29:16.008Z,78.9
2018-12-26T12:30:16.283Z,78.6
2018-12-26T12:31:16.342Z,78.8
2018-12-26T12:32:16.606Z,78.2
2018-12-26T12:33:16.856Z,77.8
2018-12-26T12:34:16.134Z,77.5
2018-12-26T12:35:16.410Z,77.0
2018-12-26T12:36:16.676Z,77.2
2018-12-26T12:37:16.943Z,76.4
2018-12-26T12:38:16.205Z,76.5
2018-12-26T12:39:16.478Z,76.5
2018-12-26T12:40:16.747Z,77.1
2018-12-26T12:41:16.905Z,77.8
2018-12-26T12:42:16.175Z,77.3
2018-12-26T12:43:16.438Z,77.5
2018-12-26T12:44:16.714Z,77.7
2018-12-26T12:45:16.975Z,77.2
2018-12-26T12:46:16.234Z,77.4
2018-12-26T12:47:16.501Z,77.4
2018-12-26T12:48:16.770Z,77.6
2018-12-26T12:49:16.027Z,77.5
2018-12-26T12:50:16.299Z,77.9
2018-12-26T12:51:16.373Z,77.5
2018-12-26T12:52:16.636Z,77.0
2018-12-26T12:53:16.899Z,77.3
2018-12-26T12:54:16.158Z,77.3
2018-12-26T12:55:16.419Z,77.3
2018-12-26T12:56:16.702Z,77.2
2018-12-26T12:57:16.975Z,76.8
2018-12-26T12:58:16.236Z,76.9
2018-12-26T12:59:16.499Z,77.0
2018-12-26T13:00:16.777Z,76.7
2018-12-26T13:01:16.814Z,77.1
2018-12-26T13:02:17.865Z,76.8
2018-12-26T13:03:16.136Z,77.0
2018-12-26T13:04:16.408Z,76.8
2018-12-26T13:05:16.663Z,77.2
2018-12-26T13:06:16.931Z,77.3
2018-12-26T13:07:16.201Z,77.4
2018-12-26T13:08:16.470Z,77.0
2018-12-26T13:09:16.734Z,76.7
2018-12-26T13:10:16.012Z,76.7
2018-12-26T13:11:16.055Z,77.5
2018-12-26T13:12:16.333Z,77.2
2018-12-26T13:13:16.608Z,77.2
2018-12-26T13:14:16.875Z,76.8
2018-12-26T13:15:16.151Z,76.8
2018-12-26T13:16:16.413Z,76.8
2018-12-26T13:17:16.677Z,77.4
2018-12-26T13:18:16.942Z,77.0